Time;durP1;ratioP1;P1;durP2;ratioP2;P2;SDS_P1;SDS_P2;PMS_P1;PMS_P2;Temp;Humidity;BMP_temperature;BMP_pressure;BME280_temperature;BME280_humidity;BME280_pressure;Samples;Min_cycle;Max_cycle;Signal;HPM_P1;HPM_P2
2023/02/13 00:01:28;;;;;;;22.90;17.37;;;8.70;99.90;;;;;;5029136;28;20248;-78
2023/02/13 00:03:53;;;;;;;26.70;16.80;;;8.80;99.90;;;;;;5027506;28;20594;-78
2023/02/13 00:06:19;;;;;;;23.70;17.70;;;8.70;99.90;;;;;;5029003;28;20261;-78
2023/02/13 00:08:45;;;;;;;22.90;17.60;;;8.30;99.90;;;;;;5028945;28;20190;-78
2023/02/13 00:11:10;;;;;;;25.87;18.07;;;8.80;99.90;;;;;;5027651;28;20762;-78
2023/02/13 00:13:36;;;;;;;19.90;16.67;;;8.80;99.90;;;;;;5028922;28;20749;-78
2023/02/13 00:16:03;;;;;;;24.27;17.80;;;8.80;99.90;;;;;;5029092;28;20651;-78
2023/02/13 00:18:32;;;;;;;25.33;16.53;;;8.80;99.90;;;;;;5027670;28;20639;-78
2023/02/13 00:21:06;;;;;;;24.83;18.00;;;8.70;99.90;;;;;;5028795;28;20418;-79
2023/02/13 00:23:33;;;;;;;24.73;18.20;;;8.70;99.90;;;;;;5035075;28;20437;-78
2023/02/13 00:26:00;;;;;;;23.13;17.40;;;8.80;99.90;;;;;;5038131;28;20435;-78
2023/02/13 00:28:26;;;;;;;25.33;18.50;;;8.90;99.90;;;;;;5016305;28;20413;-78
2023/02/13 00:30:52;;;;;;;22.43;16.60;;;8.70;99.90;;;;;;5027445;28;20418;-78
2023/02/13 00:33:18;;;;;;;21.10;14.70;;;8.80;99.90;;;;;;5028732;28;20425;-78
2023/02/13 00:35:43;;;;;;;17.60;12.77;;;8.90;99.90;;;;;;5028965;28;20451;-78
2023/02/13 00:38:09;;;;;;;17.23;13.40;;;8.80;99.90;;;;;;5034207;28;20981;-77
2023/02/13 00:40:35;;;;;;;14.77;11.00;;;8.70;99.90;;;;;;5029131;28;20269;-78
2023/02/13 00:43:00;;;;;;;13.67;11.40;;;8.70;99.90;;;;;;5037483;28;20210;-78
2023/02/13 00:45:26;;;;;;;16.80;12.43;;;8.70;99.90;;;;;;5034807;28;20211;-77
2023/02/13 00:47:51;;;;;;;15.90;11.30;;;8.60;99.90;;;;;;5032655;28;20197;-79
2023/02/13 00:50:17;;;;;;;15.13;11.63;;;8.60;99.90;;;;;;5030854;28;20265;-78
2023/02/13 00:52:43;;;;;;;13.60;10.63;;;8.70;99.90;;;;;;5027445;28;20214;-79
2023/02/13 00:55:08;;;;;;;16.30;11.60;;;8.70;99.90;;;;;;5029759;28;20291;-77
2023/02/13 00:57:34;;;;;;;15.80;12.30;;;8.70;99.90;;;;;;5030878;28;20667;-78
2023/02/13 01:00:00;;;;;;;18.03;10.90;;;8.70;99.90;;;;;;5029248;28;20647;-78
2023/02/13 01:02:25;;;;;;;15.67;11.63;;;8.70;99.90;;;;;;5028058;28;20194;-77
2023/02/13 01:04:51;;;;;;;19.53;13.97;;;8.70;99.90;;;;;;5027811;28;20265;-79
2023/02/13 01:07:17;;;;;;;16.23;10.80;;;8.80;99.90;;;;;;5014694;28;20933;-79
2023/02/13 01:09:43;;;;;;;17.27;12.23;;;8.70;99.90;;;;;;5031086;28;20281;-78
2023/02/13 01:12:08;;;;;;;15.27;12.33;;;8.90;99.90;;;;;;5028888;28;20221;-79
2023/02/13 01:14:34;;;;;;;17.10;12.33;;;8.80;99.90;;;;;;5029103;28;20212;-79
2023/02/13 01:17:00;;;;;;;12.30;10.37;;;8.70;99.90;;;;;;5027883;28;20179;-79
2023/02/13 01:19:26;;;;;;;15.50;10.77;;;8.70;99.90;;;;;;5027622;28;20556;-78
2023/02/13 01:21:52;;;;;;;12.33;9.30;;;8.60;99.90;;;;;;5029090;28;20690;-79
2023/02/13 01:24:17;;;;;;;13.83;9.50;;;8.60;99.90;;;;;;5027998;28;20503;-78
2023/02/13 01:26:43;;;;;;;14.07;10.40;;;8.60;99.90;;;;;;5029054;28;20593;-79
2023/02/13 01:29:12;;;;;;;10.50;8.87;;;8.70;99.90;;;;;;5028138;28;20324;-78
2023/02/13 01:31:37;;;;;;;10.03;8.30;;;8.60;99.90;;;;;;5029594;28;20198;-77
2023/02/13 01:34:03;;;;;;;10.77;8.00;;;8.60;99.90;;;;;;5012273;28;20518;-78
2023/02/13 01:36:29;;;;;;;9.50;8.07;;;8.70;99.90;;;;;;5032118;28;20269;-79
2023/02/13 01:38:56;;;;;;;9.73;7.20;;;8.60;99.90;;;;;;5042471;28;20648;-79
2023/02/13 01:41:22;;;;;;;9.37;6.67;;;8.60;99.90;;;;;;5036836;28;20209;-77
2023/02/13 01:43:57;;;;;;;9.40;7.20;;;8.70;99.90;;;;;;5037098;28;20435;-78
2023/02/13 01:46:28;;;;;;;10.63;7.37;;;8.70;99.90;;;;;;5036788;28;20574;-79
2023/02/13 01:48:58;;;;;;;9.13;7.17;;;8.60;99.90;;;;;;5037137;28;20425;-78
2023/02/13 01:51:28;;;;;;;8.33;6.10;;;8.60;99.90;;;;;;5037010;28;20808;-79
2023/02/13 01:54:02;;;;;;;8.30;6.60;;;8.60;99.90;;;;;;5020017;28;20464;-79
2023/02/13 01:56:30;;;;;;;7.83;6.27;;;8.60;99.90;;;;;;5038102;28;20451;-79
2023/02/13 01:59:14;;;;;;;7.47;5.60;;;8.60;99.90;;;;;;5036911;28;20423;-78
2023/02/13 02:01:40;;;;;;;7.70;6.33;;;8.70;99.90;;;;;;5002830;28;20453;-79
2023/02/13 02:04:16;;;;;;;8.37;5.93;;;8.60;99.90;;;;;;5033027;28;20452;-78
2023/02/13 02:06:45;;;;;;;7.70;6.10;;;8.60;99.90;;;;;;5030890;28;20261;-78
2023/02/13 02:09:15;;;;;;;8.37;6.37;;;8.60;99.90;;;;;;5014194;28;20496;-79
2023/02/13 02:11:56;;;;;;;8.20;5.90;;;8.50;99.90;;;;;;5029821;28;20457;-78
2023/02/13 02:14:22;;;;;;;9.70;6.13;;;8.50;99.90;;;;;;5030229;28;20539;-78
2023/02/13 02:16:47;;;;;;;6.90;5.63;;;8.40;99.90;;;;;;5030127;28;20559;-78
2023/02/13 02:19:23;;;;;;;6.70;4.80;;;8.50;99.90;;;;;;5029028;28;20210;-78
2023/02/13 02:22:00;;;;;;;9.37;5.70;;;8.60;99.90;;;;;;5028857;28;20293;-78
2023/02/13 02:24:44;;;;;;;8.30;6.27;;;8.40;99.90;;;;;;5028884;28;20457;-78
2023/02/13 02:27:22;;;;;;;6.53;5.50;;;8.40;99.90;;;;;;5028797;28;20425;-78
2023/02/13 02:30:16;;;;;;;7.07;5.80;;;8.60;99.90;;;;;;5028753;28;20452;-77
2023/02/13 02:33:20;;;;;;;7.10;5.90;;;8.50;99.90;;;;;;5028619;28;20433;-78
2023/02/13 02:36:04;;;;;;;6.10;4.90;;;8.40;99.90;;;;;;5028697;28;20955;-78
2023/02/13 02:38:40;;;;;;;6.10;5.13;;;8.30;99.90;;;;;;5037361;28;20799;-78
2023/02/13 02:44:23;;;;;;;6.70;5.20;;;8.40;99.90;;;;;;5029266;28;20500;-78
2023/02/13 02:50:13;;;;;;;7.23;5.50;;;8.30;99.90;;;;;;5029367;28;20409;-78
2023/02/13 02:52:55;;;;;;;8.33;6.27;;;8.20;99.90;;;;;;5034855;28;21014;-80
2023/02/13 02:55:35;;;;;;;7.30;5.60;;;8.20;99.90;;;;;;5035622;28;20464;-77
2023/02/13 03:06:58;;;;;;;6.90;5.50;;;8.30;99.90;;;;;;5029253;28;20425;-78
2023/02/13 03:15:08;;;;;;;7.80;5.30;;;8.20;99.90;;;;;;5024318;28;20295;-78
2023/02/13 03:23:14;;;;;;;5.87;5.27;;;8.30;99.90;;;;;;5024064;28;20437;-78
2023/02/13 03:26:14;;;;;;;7.40;5.20;;;8.10;99.90;;;;;;5020704;28;20479;-78
2023/02/13 03:32:00;;;;;;;5.80;4.50;;;8.10;99.90;;;;;;5010142;28;20430;-79
2023/02/13 03:37:53;;;;;;;9.50;4.87;;;8.00;99.90;;;;;;5010084;28;20461;-79
2023/02/13 03:40:08;;;;;;;6.83;5.07;;;8.10;99.90;;;;;;5010167;28;20418;-78
2023/02/13 03:43:00;;;;;;;5.47;4.33;;;8.10;99.90;;;;;;5009967;28;20942;-78
2023/02/13 03:51:07;;;;;;;6.93;4.40;;;8.00;99.90;;;;;;5009974;28;20414;-78
2023/02/13 03:53:37;;;;;;;6.33;4.60;;;8.20;99.90;;;;;;5009796;28;20410;-77
2023/02/13 04:01:38;;;;;;;6.07;4.30;;;8.00;99.90;;;;;;5009031;28;20513;-78
2023/02/13 04:04:22;;;;;;;6.20;4.67;;;7.90;99.90;;;;;;5009696;28;20419;-78
2023/02/13 04:06:55;;;;;;;5.50;4.27;;;8.10;99.90;;;;;;5009774;28;21277;-78
2023/02/13 04:09:22;;;;;;;5.00;3.83;;;8.00;99.90;;;;;;5009605;28;20454;-78
2023/02/13 04:12:07;;;;;;;4.77;3.90;;;7.90;99.90;;;;;;5008244;28;20504;-78
2023/02/13 04:14:39;;;;;;;5.27;4.40;;;7.90;99.90;;;;;;5009512;28;20544;-78
2023/02/13 04:17:14;;;;;;;5.63;4.50;;;8.20;99.90;;;;;;5009415;28;20815;-78
2023/02/13 04:19:40;;;;;;;7.77;4.93;;;8.00;99.90;;;;;;5008248;28;20810;-78
2023/02/13 04:22:06;;;;;;;5.17;3.70;;;8.20;99.90;;;;;;5008258;28;20429;-78
2023/02/13 04:24:32;;;;;;;6.33;5.10;;;8.00;99.90;;;;;;5008523;28;20410;-79
2023/02/13 04:26:58;;;;;;;8.77;4.87;;;8.00;99.90;;;;;;5009344;28;20282;-79
2023/02/13 04:29:25;;;;;;;6.43;4.40;;;8.00;99.90;;;;;;5008011;28;20588;-78
2023/02/13 04:31:51;;;;;;;7.43;4.90;;;7.90;99.90;;;;;;4991680;28;20465;-78
2023/02/13 04:34:17;;;;;;;5.60;4.80;;;8.00;99.90;;;;;;5009244;28;20639;-78
2023/02/13 04:36:42;;;;;;;6.30;4.90;;;8.00;99.90;;;;;;5008218;28;20434;-77
2023/02/13 04:39:09;;;;;;;6.70;4.70;;;7.90;99.90;;;;;;5035892;28;20494;-79
2023/02/13 04:41:35;;;;;;;7.23;5.43;;;7.90;99.90;;;;;;5048777;28;20197;-79
2023/02/13 04:44:00;;;;;;;6.60;4.70;;;7.90;99.90;;;;;;5048679;28;20416;-78
2023/02/13 04:46:26;;;;;;;8.03;5.20;;;8.00;99.90;;;;;;5048966;28;20299;-78
2023/02/13 04:48:52;;;;;;;7.40;5.37;;;7.90;99.90;;;;;;5048613;28;20647;-78
2023/02/13 04:51:17;;;;;;;7.87;5.37;;;8.00;99.90;;;;;;5047459;28;20709;-78
2023/02/13 04:53:43;;;;;;;8.73;6.20;;;8.10;99.90;;;;;;5047241;28;20657;-78
2023/02/13 04:56:09;;;;;;;7.73;5.60;;;8.10;99.90;;;;;;5048753;28;20273;-78
2023/02/13 04:58:34;;;;;;;7.57;5.43;;;8.10;99.90;;;;;;5047147;28;20230;-78
2023/02/13 05:01:00;;;;;;;7.73;5.60;;;8.00;99.90;;;;;;5046030;28;20304;-79
2023/02/13 05:03:26;;;;;;;7.50;5.30;;;8.10;99.90;;;;;;5047152;28;20212;-78
2023/02/13 05:05:51;;;;;;;7.80;5.00;;;7.90;99.90;;;;;;5048712;28;20174;-78
2023/02/13 05:08:17;;;;;;;8.37;5.80;;;7.90;99.90;;;;;;5030484;28;20222;-78
2023/02/13 05:10:43;;;;;;;7.07;5.33;;;7.90;99.90;;;;;;5047109;28;20699;-78
2023/02/13 05:13:08;;;;;;;6.70;5.53;;;7.90;99.90;;;;;;5049719;28;20194;-78
2023/02/13 05:15:34;;;;;;;8.27;5.90;;;8.00;99.90;;;;;;5053826;28;20202;-78
2023/02/13 05:18:00;;;;;;;9.53;6.80;;;7.90;99.90;;;;;;5051969;28;20182;-79
2023/02/13 05:20:25;;;;;;;7.97;5.73;;;7.80;99.90;;;;;;5051224;28;20181;-78
2023/02/13 05:25:40;;;;;;;8.33;5.93;;;7.90;99.90;;;;;;5052536;28;20181;-78
2023/02/13 05:30:51;;;;;;;8.33;6.13;;;8.20;99.90;;;;;;5052158;28;20787;-79
2023/02/13 05:33:17;;;;;;;9.50;6.50;;;8.00;99.90;;;;;;5052060;28;20446;-79
2023/02/13 05:35:42;;;;;;;8.67;7.27;;;8.00;99.90;;;;;;5051075;28;20522;-79
2023/02/13 05:38:08;;;;;;;8.60;6.70;;;8.10;99.90;;;;;;5046856;28;20214;-79
2023/02/13 05:40:34;;;;;;;10.00;7.00;;;8.30;99.90;;;;;;5047522;28;20178;-78
2023/02/13 05:42:59;;;;;;;11.30;7.40;;;8.00;99.90;;;;;;5030754;28;20667;-78
2023/02/13 05:45:25;;;;;;;9.53;6.87;;;8.00;99.90;;;;;;5032353;28;20202;-79
2023/02/13 05:47:50;;;;;;;10.73;7.10;;;8.00;99.90;;;;;;5031897;28;20182;-79
2023/02/13 05:50:16;;;;;;;10.40;7.43;;;8.10;99.90;;;;;;5032015;28;20639;-78
2023/02/13 05:52:42;;;;;;;9.67;7.50;;;8.00;99.90;;;;;;5031884;28;20609;-78
2023/02/13 05:55:07;;;;;;;10.20;6.17;;;8.10;99.90;;;;;;5030707;28;20245;-79
2023/02/13 05:57:33;;;;;;;8.67;6.20;;;8.00;99.90;;;;;;5030704;28;20663;-79
2023/02/13 05:59:58;;;;;;;9.53;6.40;;;7.90;99.90;;;;;;5031848;28;20221;-78
2023/02/13 06:02:24;;;;;;;11.10;7.17;;;7.90;99.90;;;;;;5032004;28;20243;-78
2023/02/13 06:04:50;;;;;;;10.43;7.00;;;8.00;99.90;;;;;;5031680;28;20339;-78
2023/02/13 06:07:15;;;;;;;9.83;7.60;;;8.20;99.90;;;;;;5031838;28;20189;-79
2023/02/13 06:09:41;;;;;;;8.13;6.40;;;7.90;99.90;;;;;;5030304;28;20616;-79
2023/02/13 06:12:07;;;;;;;10.20;7.47;;;8.00;99.90;;;;;;5031688;28;20228;-79
2023/02/13 06:14:32;;;;;;;10.43;7.50;;;7.80;99.90;;;;;;5030091;28;20254;-78
2023/02/13 06:17:00;;;;;;;9.83;7.20;;;7.90;99.90;;;;;;5031679;28;20377;-79
2023/02/13 06:19:25;;;;;;;8.60;6.07;;;7.80;99.90;;;;;;5030706;28;20201;-77
2023/02/13 06:21:51;;;;;;;10.83;7.00;;;7.80;99.90;;;;;;5031861;28;20945;-78
2023/02/13 06:24:17;;;;;;;10.00;6.90;;;7.80;99.90;;;;;;5030815;28;20710;-77
2023/02/13 06:26:42;;;;;;;8.20;6.10;;;7.80;99.90;;;;;;5030493;28;20182;-77
2023/02/13 06:29:08;;;;;;;9.27;7.00;;;8.00;99.90;;;;;;5031645;28;20205;-77
2023/02/13 06:31:35;;;;;;;11.03;7.80;;;7.80;99.90;;;;;;5031306;28;20228;-78
2023/02/13 06:34:00;;;;;;;9.90;7.40;;;7.80;99.90;;;;;;5032275;28;20286;-78
2023/02/13 06:36:26;;;;;;;9.70;6.80;;;7.80;99.90;;;;;;5031501;28;20504;-79
2023/02/13 06:38:52;;;;;;;9.80;6.80;;;7.50;99.90;;;;;;5042221;28;20194;-78
2023/02/13 06:41:18;;;;;;;9.60;7.30;;;7.70;99.90;;;;;;5049758;28;20197;-78
2023/02/13 06:43:43;;;;;;;10.57;7.23;;;7.70;99.90;;;;;;5049622;28;20548;-78
2023/02/13 06:46:09;;;;;;;10.73;6.97;;;7.70;99.90;;;;;;5051192;28;20300;-78
2023/02/13 06:48:35;;;;;;;9.23;6.90;;;7.80;99.90;;;;;;5050854;28;20178;-79
2023/02/13 06:51:00;;;;;;;12.87;7.70;;;7.40;99.90;;;;;;5049585;28;20178;-79
2023/02/13 06:53:27;;;;;;;9.53;6.70;;;7.50;99.90;;;;;;5050508;28;20924;-79
2023/02/13 06:55:54;;;;;;;10.80;7.60;;;7.40;99.90;;;;;;5051183;28;20178;-78
2023/02/13 06:58:21;;;;;;;9.60;7.40;;;7.40;99.90;;;;;;5050669;28;20466;-79
2023/02/13 07:00:47;;;;;;;11.40;7.60;;;7.40;99.90;;;;;;5050774;28;20897;-79
2023/02/13 07:03:13;;;;;;;9.80;6.20;;;7.40;99.90;;;;;;5051189;28;20432;-79
2023/02/13 07:05:40;;;;;;;10.80;7.60;;;7.50;99.90;;;;;;5049588;28;20473;-79
2023/02/13 07:08:07;;;;;;;9.33;6.93;;;7.40;99.90;;;;;;5051039;28;20228;-78
2023/02/13 07:10:32;;;;;;;7.70;6.80;;;7.30;99.90;;;;;;5032803;28;20804;-78
2023/02/13 07:12:58;;;;;;;8.80;6.30;;;7.60;99.90;;;;;;5050787;28;20456;-78
2023/02/13 07:15:24;;;;;;;11.13;6.70;;;7.30;99.90;;;;;;5050557;28;20205;-79
2023/02/13 07:17:57;;;;;;;9.37;6.93;;;7.30;99.90;;;;;;5049467;28;20182;-79
2023/02/13 07:20:24;;;;;;;8.87;6.87;;;7.30;99.90;;;;;;5050423;28;20201;-78
2023/02/13 07:22:49;;;;;;;10.07;7.50;;;7.30;99.90;;;;;;5050434;28;20440;-78
2023/02/13 07:25:15;;;;;;;9.77;6.33;;;7.30;99.90;;;;;;5048233;28;20856;-79
2023/02/13 07:27:41;;;;;;;11.43;7.47;;;7.60;99.90;;;;;;5050365;28;20511;-79
2023/02/13 07:30:07;;;;;;;9.73;6.60;;;7.40;99.90;;;;;;5050306;28;20542;-78
2023/02/13 07:32:33;;;;;;;11.20;7.60;;;7.30;99.90;;;;;;5048995;28;20205;-78
2023/02/13 07:34:59;;;;;;;11.57;7.97;;;7.30;99.90;;;;;;5047689;28;20468;-78
2023/02/13 07:37:27;;;;;;;12.20;7.87;;;7.30;99.90;;;;;;5049982;28;20181;-78
2023/02/13 07:39:52;;;;;;;11.10;7.57;;;7.30;99.90;;;;;;5030344;28;20193;-78
2023/02/13 07:42:18;;;;;;;10.80;7.20;;;7.20;99.90;;;;;;5029777;28;20953;-78
2023/02/13 07:44:44;;;;;;;10.57;8.07;;;7.40;99.90;;;;;;5029683;28;20655;-78
2023/02/13 07:47:09;;;;;;;11.87;8.07;;;7.70;99.90;;;;;;5029969;28;20181;-78
2023/02/13 07:49:35;;;;;;;11.80;7.93;;;7.60;99.90;;;;;;5028492;28;20214;-78
2023/02/13 07:52:02;;;;;;;10.60;7.07;;;7.90;99.90;;;;;;5029910;28;20198;-78
2023/02/13 07:54:28;;;;;;;9.83;7.20;;;7.90;99.90;;;;;;5029466;28;20496;-78
2023/02/13 07:56:54;;;;;;;9.70;7.20;;;8.10;99.90;;;;;;5029997;28;20512;-78
2023/02/13 07:59:19;;;;;;;10.30;7.50;;;8.20;99.90;;;;;;5029718;28;20318;-78
2023/02/13 08:01:45;;;;;;;10.90;8.00;;;8.30;99.90;;;;;;5028894;28;20202;-78
2023/02/13 08:04:11;;;;;;;8.80;7.40;;;8.40;99.90;;;;;;5029359;28;20196;-78
2023/02/13 08:06:40;;;;;;;9.80;7.30;;;8.60;99.90;;;;;;5028449;28;20281;-78
2023/02/13 08:11:53;;;;;;;10.20;8.60;;;8.90;99.90;;;;;;5029612;28;20983;-78
2023/02/13 08:14:26;;;;;;;8.83;6.83;;;9.00;99.90;;;;;;5027961;28;20599;-78
2023/02/13 08:16:53;;;;;;;11.90;8.03;;;9.20;99.90;;;;;;5028235;28;20940;-78
2023/02/13 08:19:19;;;;;;;9.17;7.07;;;9.40;99.90;;;;;;5029219;28;20428;-78
2023/02/13 08:21:44;;;;;;;10.70;7.90;;;9.70;99.90;;;;;;5029099;28;20437;-78
2023/02/13 08:24:11;;;;;;;11.10;7.33;;;10.00;99.90;;;;;;5028127;28;20178;-78
2023/02/13 08:26:37;;;;;;;16.90;7.37;;;10.20;99.90;;;;;;5029432;28;20297;-78
2023/02/13 08:29:04;;;;;;;10.20;6.80;;;10.50;99.90;;;;;;5029015;28;20512;-79
2023/02/13 08:31:30;;;;;;;8.80;7.00;;;10.70;99.90;;;;;;5027559;28;21077;-78
2023/02/13 08:33:56;;;;;;;8.23;6.87;;;11.00;99.90;;;;;;5027702;28;20552;-78
2023/02/13 08:36:23;;;;;;;9.80;7.70;;;11.20;99.90;;;;;;5027835;28;20428;-78
2023/02/13 08:38:49;;;;;;;10.17;6.97;;;11.30;99.90;;;;;;5040002;28;20478;-78
2023/02/13 08:41:17;;;;;;;9.70;7.77;;;11.50;99.90;;;;;;5048788;28;20432;-77
2023/02/13 08:43:45;;;;;;;8.33;7.27;;;11.60;99.90;;;;;;5047585;28;20261;-78
2023/02/13 08:46:11;;;;;;;9.67;6.87;;;11.70;99.90;;;;;;5047476;28;20511;-78
2023/02/13 08:48:36;;;;;;;8.30;6.83;;;11.90;99.90;;;;;;5049033;28;20228;-78
2023/02/13 08:51:10;;;;;;;8.23;6.70;;;12.00;99.90;;;;;;5047314;28;20192;-78
2023/02/13 08:53:37;;;;;;;9.70;6.83;;;12.10;99.90;;;;;;5030745;28;20174;-78
2023/02/13 08:56:03;;;;;;;7.90;6.40;;;12.30;99.90;;;;;;5048808;28;20474;-78
2023/02/13 08:58:29;;;;;;;7.90;6.70;;;12.40;99.90;;;;;;5048774;28;20415;-78
2023/02/13 09:00:55;;;;;;;9.10;6.53;;;12.50;99.90;;;;;;5047151;28;20507;-78
2023/02/13 09:03:20;;;;;;;8.70;7.17;;;12.60;99.90;;;;;;5048852;28;20214;-79
2023/02/13 09:05:47;;;;;;;8.60;7.20;;;12.70;99.90;;;;;;5047613;28;20185;-78
2023/02/13 09:08:13;;;;;;;8.43;6.70;;;12.80;99.90;;;;;;5048778;28;20588;-78
2023/02/13 09:10:40;;;;;;;11.17;7.60;;;12.90;99.90;;;;;;5048385;28;20427;-78
2023/02/13 09:13:06;;;;;;;8.43;6.77;;;12.90;99.90;;;;;;5049761;28;20708;-78
2023/02/13 09:15:32;;;;;;;8.53;7.23;;;13.00;99.90;;;;;;5050434;28;20468;-78
2023/02/13 09:17:57;;;;;;;8.87;6.57;;;13.10;99.90;;;;;;5050415;28;20604;-78
2023/02/13 09:20:23;;;;;;;9.00;6.80;;;13.20;99.90;;;;;;5050485;28;20416;-79
2023/02/13 09:22:49;;;;;;;7.70;6.90;;;13.20;99.90;;;;;;5050192;28;20209;-78
2023/02/13 09:25:15;;;;;;;8.13;6.20;;;13.30;99.90;;;;;;5031743;28;20417;-79
2023/02/13 09:27:40;;;;;;;8.30;7.20;;;13.30;99.90;;;;;;5049507;28;20170;-78
2023/02/13 09:30:10;;;;;;;8.47;6.93;;;13.40;99.90;;;;;;5050292;28;20546;-78
2023/02/13 09:32:40;;;;;;;9.23;7.83;;;13.50;99.90;;;;;;5050458;28;20198;-79
2023/02/13 09:35:06;;;;;;;8.30;7.07;;;13.50;99.90;;;;;;5048951;28;20463;-79
2023/02/13 09:37:32;;;;;;;7.70;6.87;;;13.70;99.90;;;;;;5048596;28;20431;-79
2023/02/13 09:39:57;;;;;;;8.30;6.43;;;13.80;99.90;;;;;;5029284;28;20197;-79
2023/02/13 09:42:25;;;;;;;7.57;6.77;;;13.80;99.90;;;;;;5030707;28;20725;-79
2023/02/13 09:44:54;;;;;;;8.77;6.90;;;13.90;99.90;;;;;;5029441;28;20183;-79
2023/02/13 09:47:34;;;;;;;8.10;7.13;;;13.90;99.90;;;;;;5029974;28;20455;-78
2023/02/13 09:50:12;;;;;;;7.63;6.63;;;13.90;99.90;;;;;;5030129;28;20452;-79
2023/02/13 09:52:38;;;;;;;7.60;6.53;;;14.00;99.90;;;;;;5030732;28;20456;-79
2023/02/13 09:55:20;;;;;;;6.97;6.13;;;14.10;99.90;;;;;;5029408;28;20817;-79
2023/02/13 09:58:19;;;;;;;9.57;7.50;;;14.10;99.90;;;;;;5013463;28;20554;-78
2023/02/13 10:00:50;;;;;;;7.97;6.90;;;14.10;99.90;;;;;;5026034;28;20500;-78
2023/02/13 10:03:30;;;;;;;8.57;6.83;;;14.20;99.90;;;;;;5033415;28;20937;-78
2023/02/13 10:06:13;;;;;;;8.90;7.30;;;14.30;99.90;;;;;;5034501;28;20484;-79
2023/02/13 10:08:58;;;;;;;7.33;5.93;;;14.30;99.90;;;;;;5033428;28;20432;-78
2023/02/13 10:12:01;;;;;;;7.53;6.83;;;14.40;99.90;;;;;;5033771;28;20518;-79
2023/02/13 10:14:27;;;;;;;8.27;6.90;;;14.50;99.90;;;;;;5034139;28;20999;-78
2023/02/13 10:17:06;;;;;;;6.33;5.37;;;14.50;99.90;;;;;;5033263;28;20413;-79
2023/02/13 10:19:35;;;;;;;7.60;6.63;;;14.60;99.90;;;;;;5035015;28;20233;-79
2023/02/13 10:22:10;;;;;;;8.37;6.50;;;14.80;99.90;;;;;;5033753;28;20465;-79
2023/02/13 10:25:07;;;;;;;7.60;6.77;;;14.90;99.90;;;;;;5032956;28;20761;-79
2023/02/13 10:27:45;;;;;;;7.23;6.47;;;15.10;99.90;;;;;;5035346;28;20429;-79
2023/02/13 10:30:16;;;;;;;8.60;7.13;;;15.20;99.90;;;;;;5035017;28;20485;-79
2023/02/13 10:33:18;;;;;;;10.33;6.77;;;15.40;99.90;;;;;;5033765;28;20884;-79
2023/02/13 10:36:14;;;;;;;8.30;6.40;;;15.60;99.90;;;;;;5035186;28;20479;-79
2023/02/13 10:38:50;;;;;;;8.53;6.60;;;15.90;99.90;;;;;;5008908;28;21008;-79
2023/02/13 10:41:42;;;;;;;8.20;6.50;;;16.10;99.90;;;;;;5055046;28;20458;-80
2023/02/13 10:44:41;;;;;;;9.50;6.70;;;16.20;99.90;;;;;;5054662;28;20476;-79
2023/02/13 10:47:25;;;;;;;9.23;6.90;;;16.40;99.90;;;;;;5054915;28;20425;-80
2023/02/13 10:50:14;;;;;;;8.13;5.90;;;16.40;99.90;;;;;;5055253;28;20483;-80
2023/02/13 10:52:42;;;;;;;7.50;6.30;;;16.30;99.90;;;;;;5053671;28;20854;-79
2023/02/13 10:55:08;;;;;;;6.80;6.10;;;16.20;99.90;;;;;;5053262;28;20456;-79
2023/02/13 10:58:00;;;;;;;9.33;6.87;;;16.10;99.90;;;;;;5053938;28;20472;-79
2023/02/13 11:00:33;;;;;;;8.30;5.97;;;15.80;99.90;;;;;;5053704;28;20182;-79
2023/02/13 11:02:59;;;;;;;6.63;5.93;;;15.50;99.90;;;;;;5053563;28;20949;-80
2023/02/13 11:05:31;;;;;;;8.67;6.83;;;15.30;99.90;;;;;;5052528;28;20424;-79
2023/02/13 11:07:59;;;;;;;7.53;6.07;;;15.20;99.90;;;;;;5053025;28;20428;-79
2023/02/13 11:10:26;;;;;;;8.77;6.93;;;15.00;99.90;;;;;;5051957;28;20416;-79
2023/02/13 11:12:53;;;;;;;7.20;6.20;;;14.90;99.90;;;;;;5053131;28;20670;-79
2023/02/13 11:15:25;;;;;;;8.97;6.40;;;14.70;99.90;;;;;;5052787;28;20464;-79
2023/02/13 11:17:54;;;;;;;8.33;6.40;;;14.60;99.90;;;;;;5053275;28;20408;-79
2023/02/13 11:20:35;;;;;;;6.53;5.83;;;14.50;99.90;;;;;;5051591;28;20435;-79
2023/02/13 11:23:20;;;;;;;8.90;6.63;;;14.40;99.90;;;;;;5051170;28;20476;-78
2023/02/13 11:25:59;;;;;;;8.40;6.60;;;14.30;99.90;;;;;;5052019;28;20728;-79
2023/02/13 11:28:28;;;;;;;9.80;7.07;;;14.20;99.90;;;;;;5052675;28;20420;-79
2023/02/13 11:31:09;;;;;;;8.30;6.57;;;14.10;99.90;;;;;;5054379;28;20755;-79
2023/02/13 11:33:35;;;;;;;7.07;6.10;;;14.00;99.90;;;;;;5054298;28;20844;-79
2023/02/13 11:36:07;;;;;;;6.53;5.93;;;14.00;99.90;;;;;;5054579;28;20467;-79
2023/02/13 11:38:33;;;;;;;8.40;5.90;;;14.00;99.90;;;;;;5045779;28;20186;-79
2023/02/13 11:41:04;;;;;;;6.90;5.13;;;13.90;99.90;;;;;;5033793;28;20425;-79
2023/02/13 11:43:42;;;;;;;9.63;6.70;;;13.90;99.90;;;;;;5033075;28;20843;-79
2023/02/13 11:46:25;;;;;;;7.87;5.70;;;13.80;99.90;;;;;;5049933;28;20435;-79
2023/02/13 11:49:05;;;;;;;7.50;6.23;;;13.80;99.90;;;;;;5034029;28;20421;-78
2023/02/13 11:51:58;;;;;;;7.60;5.63;;;13.80;99.90;;;;;;5033685;28;20472;-79
2023/02/13 11:54:34;;;;;;;7.87;6.40;;;13.90;99.90;;;;;;5033720;28;20758;-79
2023/02/13 11:57:17;;;;;;;7.90;6.30;;;14.00;99.90;;;;;;5033460;28;20524;-79
2023/02/13 11:59:46;;;;;;;8.27;6.60;;;14.10;99.90;;;;;;5015755;28;20425;-79
2023/02/13 12:02:18;;;;;;;8.07;6.60;;;14.30;99.90;;;;;;5033519;28;20476;-79
2023/02/13 12:04:46;;;;;;;6.53;5.77;;;14.30;99.90;;;;;;5033216;28;20417;-79
2023/02/13 12:07:25;;;;;;;8.20;6.50;;;14.40;99.90;;;;;;5033526;28;20421;-79
2023/02/13 12:10:07;;;;;;;7.23;6.00;;;14.50;99.90;;;;;;5016597;28;20421;-79
2023/02/13 12:13:02;;;;;;;7.50;6.10;;;14.60;99.90;;;;;;5033637;28;20540;-79
2023/02/13 12:15:31;;;;;;;7.63;6.13;;;14.70;99.90;;;;;;5032740;28;20466;-79
2023/02/13 12:18:03;;;;;;;7.80;6.37;;;14.80;99.90;;;;;;5033380;28;20421;-79
2023/02/13 12:20:36;;;;;;;9.10;6.93;;;14.80;99.90;;;;;;5032548;28;20489;-79
2023/02/13 12:23:19;;;;;;;7.80;5.87;;;14.90;99.90;;;;;;5032718;28;20468;-79
2023/02/13 12:26:18;;;;;;;7.40;5.73;;;15.00;99.90;;;;;;5032798;28;20435;-79
2023/02/13 12:29:18;;;;;;;8.30;6.67;;;15.00;99.90;;;;;;5032924;28;20428;-79
2023/02/13 12:31:43;;;;;;;7.10;5.37;;;15.10;99.90;;;;;;5032252;28;20849;-79
2023/02/13 12:34:18;;;;;;;8.57;6.37;;;15.20;99.90;;;;;;5032086;28;21122;-79
2023/02/13 12:37:15;;;;;;;8.50;6.27;;;15.20;99.90;;;;;;5032367;28;20181;-79
2023/02/13 12:39:50;;;;;;;6.60;5.87;;;15.20;99.90;;;;;;5049940;28;20555;-79
2023/02/13 12:42:36;;;;;;;7.40;6.10;;;15.20;99.90;;;;;;5053106;28;20436;-79
2023/02/13 12:45:24;;;;;;;6.53;5.87;;;15.20;99.90;;;;;;5051455;28;20423;-79
2023/02/13 12:48:14;;;;;;;10.33;6.07;;;15.20;99.90;;;;;;5053416;28;20442;-79
2023/02/13 12:50:43;;;;;;;9.63;6.70;;;15.20;99.90;;;;;;5035440;28;20432;-79
2023/02/13 12:54:05;;;;;;;8.10;5.90;;;15.20;99.90;;;;;;5053303;28;20443;-79
2023/02/13 12:57:05;;;;;;;9.33;5.80;;;15.20;99.90;;;;;;4975031;28;20430;-79
2023/02/13 13:00:26;;;;;;;6.70;5.73;;;15.30;99.90;;;;;;4990686;28;20422;-79
2023/02/13 13:03:10;;;;;;;8.53;5.80;;;15.20;99.90;;;;;;4968342;28;20435;-79
2023/02/13 13:05:46;;;;;;;6.80;5.77;;;15.20;99.90;;;;;;5053443;28;20412;-79
2023/02/13 13:08:29;;;;;;;7.37;5.87;;;15.20;99.90;;;;;;5050842;28;20504;-79
2023/02/13 13:11:14;;;;;;;10.10;6.53;;;15.20;99.90;;;;;;5052607;28;20408;-79
2023/02/13 13:13:46;;;;;;;7.93;6.00;;;15.30;99.90;;;;;;5051544;28;20412;-79
2023/02/13 13:16:34;;;;;;;7.07;6.00;;;15.30;99.90;;;;;;5051254;28;20461;-78
2023/02/13 13:19:30;;;;;;;6.70;5.63;;;15.30;99.90;;;;;;5049981;28;20431;-79
2023/02/13 13:22:05;;;;;;;6.23;5.63;;;15.30;99.90;;;;;;5052064;28;20428;-79
2023/02/13 13:24:40;;;;;;;7.40;6.07;;;15.30;99.90;;;;;;5051080;28;20411;-79
2023/02/13 13:27:23;;;;;;;7.33;6.60;;;15.30;99.90;;;;;;5051232;28;20443;-79
2023/02/13 13:30:03;;;;;;;9.77;6.17;;;15.30;99.90;;;;;;5051923;28;20408;-79
2023/02/13 13:32:30;;;;;;;7.60;6.00;;;15.30;99.90;;;;;;5050170;28;20427;-79
2023/02/13 13:34:57;;;;;;;6.43;5.40;;;15.30;99.90;;;;;;5054350;28;20455;-79
2023/02/13 13:38:01;;;;;;;6.57;5.57;;;15.20;99.90;;;;;;5055684;28;20904;-79
2023/02/13 13:40:29;;;;;;;8.60;5.33;;;15.20;99.90;;;;;;5015707;28;20511;-79
2023/02/13 13:43:13;;;;;;;7.07;6.30;;;15.10;99.90;;;;;;5016928;28;20438;-79
2023/02/13 13:46:01;;;;;;;7.70;5.10;;;15.20;99.90;;;;;;5015506;28;20978;-79
2023/02/13 13:48:56;;;;;;;6.87;5.20;;;15.10;99.90;;;;;;5015528;28;20418;-79
2023/02/13 13:51:22;;;;;;;7.43;5.63;;;15.00;99.90;;;;;;4971566;28;20476;-79
2023/02/13 13:54:19;;;;;;;6.30;4.73;;;15.00;99.90;;;;;;5014545;28;20418;-79
2023/02/13 13:56:55;;;;;;;9.13;6.13;;;15.00;99.90;;;;;;5002768;28;20493;-78
2023/02/13 13:59:36;;;;;;;6.60;5.60;;;15.00;99.90;;;;;;5015411;28;20501;-79
2023/02/13 14:02:17;;;;;;;7.87;6.10;;;14.90;99.90;;;;;;4997563;28;20429;-79
2023/02/13 14:05:19;;;;;;;8.33;6.10;;;14.90;99.90;;;;;;5030523;28;20433;-79